Terminal Aerodrome Forecast
Issued by NWS

Home | Current Version | Previous Version | Text Only | Print | Product List | Glossary Off
Versions: 1 2 3 4 5 6 7 8 9 10 11 12 13 14 15 16 17 18 19 20 21 22 23 24 25 26 27 28 29 30 31 32 33

000
FTUS43 KGRB 230500
TAFRHI
TAF
KRHI 230520Z 2306/2406 23013G18KT P6SM OVC009 WS015/24040KT
     FM231300 23012G18KT P6SM SCT012 OVC060
      TEMPO 2314/2318 5SM -SNPL BR BKN012
     FM231800 24012G18KT 6SM -SN SCT006 OVC012
      TEMPO 2318/2322 4SM -FZDZSN BR BKN006
     FM232200 27006KT P6SM -SN BKN012 OVC030
     FM240200 28006KT P6SM -SHSN OVC012=

USA.gov is the U.S. government's official web portal to all federal, state and local government web resources and services.